Time;durP1;ratioP1;P1;durP2;ratioP2;P2;SDS_P1;SDS_P2;PMS_P1;PMS_P2;Temp;Humidity;BMP_temperature;BMP_pressure;BME280_temperature;BME280_humidity;BME280_pressure;Samples;Min_cycle;Max_cycle;Signal;HPM_P1;HPM_P2
2021/09/28 00:01:17;;;;;;;9.00;5.60;;;;;;;14.33;65.33;100860.70;116588;1186;22622;-77
2021/09/28 00:03:46;;;;;;;9.80;6.20;;;;;;;14.30;65.60;100864.54;116315;1194;21911;-77
2021/09/28 00:06:15;;;;;;;12.90;7.10;;;;;;;14.28;65.75;100864.23;116500;1192;21890;-78
2021/09/28 00:08:44;;;;;;;11.80;6.10;;;;;;;14.25;65.68;100862.09;116798;1191;23928;-77
2021/09/28 00:11:13;;;;;;;14.80;7.10;;;;;;;14.23;65.78;100865.08;116787;1191;21927;-78
2021/09/28 00:13:42;;;;;;;12.30;6.30;;;;;;;14.19;65.86;100867.27;116486;1194;22666;-78
2021/09/28 00:16:11;;;;;;;10.50;7.00;;;;;;;14.15;65.88;100868.34;116535;1194;23545;-78
2021/09/28 00:18:42;;;;;;;8.50;6.10;;;;;;;14.10;66.05;100868.34;116445;1193;21629;-78
2021/09/28 00:21:11;;;;;;;11.20;6.70;;;;;;;14.05;66.04;100868.23;116510;1192;23042;-78
2021/09/28 00:23:41;;;;;;;10.10;6.20;;;;;;;14.01;66.25;100867.94;116783;1191;21904;-77
2021/09/28 00:26:11;;;;;;;8.30;5.90;;;;;;;13.98;66.39;100866.58;116872;1191;21897;-81
2021/09/28 00:28:49;;;;;;;8.70;6.10;;;;;;;13.96;66.45;100867.52;116920;1191;22040;-78
2021/09/28 00:31:18;;;;;;;12.20;6.60;;;;;;;13.91;66.51;100861.63;116833;1188;22912;-78
2021/09/28 00:33:47;;;;;;;11.90;6.80;;;;;;;13.85;66.59;100860.73;117142;1188;21878;-78
2021/09/28 00:36:18;;;;;;;12.30;5.60;;;;;;;13.80;66.67;100858.05;117172;1182;22337;-78
2021/09/28 00:38:50;;;;;;;9.90;6.20;;;;;;;13.77;66.94;100858.36;117056;1188;23515;-78
2021/09/28 00:41:19;;;;;;;11.80;6.80;;;;;;;13.75;67.06;100860.82;117117;1188;21894;-78
2021/09/28 00:43:55;;;;;;;11.20;6.60;;;;;;;13.71;67.06;100860.61;117057;1188;23606;-78
2021/09/28 00:46:25;;;;;;;10.40;6.40;;;;;;;13.67;67.14;100859.55;117156;1188;23371;-78
2021/09/28 00:48:59;;;;;;;9.20;7.00;;;;;;;13.63;67.32;100861.89;117112;1188;21878;-78
2021/09/28 00:51:28;;;;;;;11.10;7.00;;;;;;;13.59;67.50;100859.35;117165;1188;21940;-78
2021/09/28 00:53:59;;;;;;;12.10;7.10;;;;;;;13.55;67.34;100859.05;117156;1188;21878;-77
2021/09/28 00:56:28;;;;;;;10.70;7.20;;;;;;;13.52;67.59;100857.44;117087;1184;22945;-78
2021/09/28 00:59:00;;;;;;;15.00;7.90;;;;;;;13.52;67.66;100858.87;117099;1186;23619;-77
2021/09/28 01:01:30;;;;;;;12.40;6.40;;;;;;;13.49;67.70;100856.80;117108;1188;22887;-78
2021/09/28 01:03:59;;;;;;;8.80;6.30;;;;;;;13.44;67.70;100859.48;116789;1191;21908;-79
2021/09/28 01:06:28;;;;;;;11.70;7.40;;;;;;;13.38;67.85;100856.62;116812;1191;23434;-79
2021/09/28 01:09:00;;;;;;;10.40;7.20;;;;;;;13.34;68.11;100851.17;116828;1191;24109;-77
2021/09/28 01:11:29;;;;;;;9.70;7.00;;;;;;;13.32;68.16;100854.77;116787;1191;22648;-77
2021/09/28 01:13:58;;;;;;;11.00;7.20;;;;;;;13.29;68.30;100854.23;116830;1191;22153;-77
2021/09/28 01:16:27;;;;;;;13.40;7.70;;;;;;;13.26;68.39;100851.20;116819;1191;21904;-77
2021/09/28 01:18:56;;;;;;;10.60;6.70;;;;;;;13.25;68.52;100855.58;116862;1191;21895;-77
2021/09/28 01:21:25;;;;;;;10.20;6.80;;;;;;;13.23;68.57;100855.41;116874;1187;21886;-78
2021/09/28 01:23:55;;;;;;;10.10;6.90;;;;;;;13.20;68.76;100855.02;117136;1186;21905;-77
2021/09/28 01:26:24;;;;;;;11.90;7.00;;;;;;;13.17;68.82;100856.42;117177;1187;21891;-76
2021/09/28 01:28:56;;;;;;;11.90;7.50;;;;;;;13.16;68.94;100857.62;117171;1184;21877;-76
2021/09/28 01:31:25;;;;;;;10.10;6.90;;;;;;;13.15;68.99;100854.14;117149;1187;23434;-77
2021/09/28 01:33:55;;;;;;;12.90;8.20;;;;;;;13.14;69.07;100856.23;117119;1187;21898;-77
2021/09/28 01:36:24;;;;;;;13.50;7.20;;;;;;;13.14;69.18;100853.08;117203;1184;22905;-78
2021/09/28 01:38:53;;;;;;;15.40;8.30;;;;;;;13.14;69.27;100849.27;117123;1189;21883;-78
2021/09/28 01:41:23;;;;;;;13.70;8.20;;;;;;;13.17;69.34;100851.65;117103;1188;22794;-78
2021/09/28 01:44:13;;;;;;;9.90;7.50;;;;;;;13.15;69.13;100849.77;117110;1188;21953;-78
2021/09/28 01:46:46;;;;;;;15.40;9.00;;;;;;;13.11;69.26;100849.91;117203;1188;22058;-78
2021/09/28 01:49:17;;;;;;;12.30;9.40;;;;;;;13.10;69.38;100850.35;117157;1188;23486;-77
2021/09/28 01:51:47;;;;;;;16.20;7.90;;;;;;;13.10;69.55;100854.41;117262;1188;21992;-78
2021/09/28 01:54:16;;;;;;;11.00;7.50;;;;;;;13.10;69.69;100855.58;117084;1188;21890;-78
2021/09/28 01:56:45;;;;;;;13.10;7.50;;;;;;;13.12;69.77;100861.02;117182;1188;23561;-78
2021/09/28 01:59:14;;;;;;;15.40;8.50;;;;;;;13.13;69.66;100860.54;117217;1188;22343;-78
2021/09/28 02:01:43;;;;;;;14.30;8.30;;;;;;;13.12;69.65;100858.52;117210;1188;22845;-78
2021/09/28 02:04:13;;;;;;;12.60;8.70;;;;;;;13.10;69.63;100856.98;117216;1188;22076;-77
2021/09/28 02:06:44;;;;;;;11.70;8.00;;;;;;;13.10;69.77;100858.23;117143;1188;24124;-77
2021/09/28 02:09:14;;;;;;;13.80;8.20;;;;;;;13.11;69.75;100858.04;117203;1188;23895;-76
2021/09/28 02:11:44;;;;;;;15.30;8.30;;;;;;;13.08;69.78;100855.46;117154;1188;24250;-76
2021/09/28 02:14:13;;;;;;;13.80;8.30;;;;;;;13.07;69.93;100851.06;117071;1188;21875;-77
2021/09/28 02:16:45;;;;;;;14.40;8.10;;;;;;;13.06;69.96;100853.61;117161;1187;22656;-77
2021/09/28 02:19:15;;;;;;;12.10;7.90;;;;;;;13.06;69.86;100852.27;117154;1187;21997;-78
2021/09/28 02:21:44;;;;;;;11.50;7.50;;;;;;;13.03;69.86;100849.92;117168;1188;23586;-77
2021/09/28 02:24:15;;;;;;;11.90;8.50;;;;;;;12.99;69.86;100849.59;117269;1187;21873;-77
2021/09/28 02:26:45;;;;;;;11.50;7.80;;;;;;;12.97;69.92;100852.34;117239;1187;22054;-77
2021/09/28 02:29:14;;;;;;;15.50;9.80;;;;;;;12.95;70.05;100853.26;117085;1188;21889;-78
2021/09/28 02:31:43;;;;;;;15.10;9.50;;;;;;;12.97;70.30;100857.12;117181;1188;21890;-77
2021/09/28 02:34:12;;;;;;;12.30;8.10;;;;;;;12.99;70.22;100858.98;116862;1191;22924;-78
2021/09/28 02:36:41;;;;;;;12.70;8.80;;;;;;;13.01;70.26;100859.89;116923;1190;21930;-78
2021/09/28 02:39:10;;;;;;;15.50;8.40;;;;;;;13.02;70.29;100861.55;116845;1191;21893;-77
2021/09/28 02:41:39;;;;;;;11.70;8.20;;;;;;;13.04;70.20;100863.80;116818;1190;21914;-76
2021/09/28 02:44:08;;;;;;;13.40;8.80;;;;;;;13.05;70.07;100863.66;116863;1191;21903;-77
2021/09/28 02:46:37;;;;;;;20.90;9.40;;;;;;;13.05;70.07;100862.57;116835;1191;21901;-77
2021/09/28 02:49:06;;;;;;;15.30;8.30;;;;;;;13.03;70.00;100858.20;116757;1192;23542;-77
2021/09/28 02:51:35;;;;;;;15.20;8.20;;;;;;;13.00;69.95;100861.95;116549;1190;21911;-77
2021/09/28 02:54:04;;;;;;;11.50;8.30;;;;;;;12.96;69.97;100860.24;116788;1191;21907;-76
2021/09/28 02:56:33;;;;;;;12.00;7.60;;;;;;;12.93;70.04;100867.22;116806;1191;23510;-76
2021/09/28 02:59:02;;;;;;;12.50;7.30;;;;;;;12.89;69.98;100864.01;116789;1191;23537;-77
2021/09/28 03:01:32;;;;;;;13.30;7.60;;;;;;;12.85;70.10;100869.72;116894;1191;21902;-77
2021/09/28 03:04:03;;;;;;;10.80;7.40;;;;;;;12.83;70.12;100875.30;116846;1189;21908;-78
2021/09/28 03:06:32;;;;;;;12.00;7.90;;;;;;;12.81;70.19;100880.45;116519;1193;22853;-78
2021/09/28 03:09:07;;;;;;;12.00;8.60;;;;;;;12.79;70.18;100884.02;116456;1195;22127;-78
2021/09/28 03:11:38;;;;;;;10.90;7.60;;;;;;;12.75;70.16;100883.57;116508;1193;21897;-78
2021/09/28 03:14:07;;;;;;;16.00;9.20;;;;;;;12.71;70.30;100882.77;116501;1195;21925;-78
2021/09/28 03:16:36;;;;;;;11.30;7.90;;;;;;;12.68;70.37;100883.81;116503;1192;21995;-76
2021/09/28 03:19:05;;;;;;;13.70;8.90;;;;;;;12.65;70.44;100883.74;116406;1195;21898;-77
2021/09/28 03:21:35;;;;;;;14.10;8.80;;;;;;;12.63;70.46;100880.48;116413;1195;22963;-77
2021/09/28 03:24:05;;;;;;;15.60;9.80;;;;;;;12.61;70.63;100880.35;116507;1191;21902;-78
2021/09/28 03:26:34;;;;;;;18.60;10.50;;;;;;;12.60;70.85;100881.27;116839;1189;22652;-77
2021/09/28 03:29:03;;;;;;;17.50;9.10;;;;;;;12.58;70.66;100887.17;117106;1189;21943;-78
2021/09/28 03:31:33;;;;;;;15.80;9.70;;;;;;;12.56;70.74;100887.11;117232;1184;23537;-78
2021/09/28 03:34:02;;;;;;;18.40;10.70;;;;;;;12.55;70.91;100889.80;117137;1189;21881;-77
2021/09/28 03:36:32;;;;;;;13.00;9.10;;;;;;;12.53;70.71;100889.50;116986;1189;21918;-77
2021/09/28 03:39:01;;;;;;;19.60;10.00;;;;;;;12.50;70.94;100889.15;117102;1185;21886;-78
2021/09/28 03:41:30;;;;;;;14.10;9.50;;;;;;;12.48;70.92;100889.73;117112;1180;21877;-77
2021/09/28 03:43:59;;;;;;;15.40;10.20;;;;;;;12.45;70.91;100893.21;116769;1191;21890;-78
2021/09/28 03:46:31;;;;;;;15.40;9.00;;;;;;;12.42;71.04;100893.48;116743;1192;21903;-77
2021/09/28 03:49:00;;;;;;;11.70;8.30;;;;;;;12.38;71.04;100894.65;116782;1192;22029;-77
2021/09/28 03:51:30;;;;;;;10.30;7.90;;;;;;;12.34;71.26;100894.80;116805;1192;21946;-77
2021/09/28 03:53:59;;;;;;;10.70;9.10;;;;;;;12.31;71.40;100893.52;116492;1195;24129;-77
2021/09/28 03:56:28;;;;;;;10.90;8.00;;;;;;;12.28;71.46;100892.23;116450;1195;23545;-76
2021/09/28 03:58:57;;;;;;;13.00;8.10;;;;;;;12.26;71.55;100891.00;116276;1195;21890;-76
2021/09/28 04:01:26;;;;;;;11.20;7.80;;;;;;;12.25;71.61;100889.05;116439;1193;21887;-78
2021/09/28 04:03:56;;;;;;;14.70;8.00;;;;;;;12.25;71.80;100894.84;116557;1191;21913;-78
2021/09/28 04:06:25;;;;;;;12.70;7.10;;;;;;;12.24;71.75;100893.39;116516;1190;22683;-78
2021/09/28 04:08:55;;;;;;;13.00;7.70;;;;;;;12.22;71.84;100897.48;116524;1190;21910;-77
2021/09/28 04:11:24;;;;;;;7.80;6.60;;;;;;;12.21;71.80;100900.73;116538;1190;21901;-78
2021/09/28 04:13:53;;;;;;;9.70;7.30;;;;;;;12.22;71.83;100908.42;116845;1191;22943;-78
2021/09/28 04:16:24;;;;;;;10.30;7.70;;;;;;;12.24;71.89;100914.73;116896;1191;21922;-79
2021/09/28 04:18:54;;;;;;;11.50;7.70;;;;;;;12.26;71.93;100918.25;116866;1191;21882;-76
2021/09/28 04:21:27;;;;;;;10.00;7.60;;;;;;;12.31;72.20;100921.59;116682;1192;22631;-77
2021/09/28 04:23:56;;;;;;;12.00;8.50;;;;;;;12.37;72.22;100925.30;116615;1189;22909;-77
2021/09/28 04:26:25;;;;;;;14.10;8.40;;;;;;;12.42;72.02;100927.76;117024;1190;22929;-78
2021/09/28 04:28:54;;;;;;;13.30;7.00;;;;;;;12.45;71.86;100928.52;116983;1190;21915;-77
2021/09/28 04:31:24;;;;;;;23.80;7.90;;;;;;;12.44;71.81;100930.61;116955;1187;21939;-78
2021/09/28 04:33:53;;;;;;;9.80;8.10;;;;;;;12.45;71.84;100929.98;116868;1187;21890;-77
2021/09/28 04:36:23;;;;;;;14.60;9.40;;;;;;;12.44;71.59;100927.58;116839;1192;23101;-78
2021/09/28 04:38:52;;;;;;;14.90;10.30;;;;;;;12.41;71.57;100925.98;116835;1190;21893;-78
2021/09/28 04:41:21;;;;;;;18.20;13.90;;;;;;;12.38;71.77;100928.62;117009;1187;22624;-77
2021/09/28 04:43:51;;;;;;;18.10;16.30;;;;;;;12.36;71.77;100927.00;116959;1187;22919;-79
2021/09/28 04:46:20;;;;;;;19.60;16.70;;;;;;;12.34;71.61;100929.95;117025;1190;22646;-80
2021/09/28 04:48:49;;;;;;;23.50;16.20;;;;;;;12.31;71.94;100930.57;117042;1185;21898;-79
2021/09/28 04:51:20;;;;;;;22.60;14.90;;;;;;;12.30;72.02;100933.02;117089;1188;23402;-80
2021/09/28 04:53:51;;;;;;;20.60;14.20;;;;;;;12.31;72.04;100938.18;117132;1188;23482;-78
2021/09/28 04:56:22;;;;;;;17.50;14.30;;;;;;;12.30;72.01;100946.56;116843;1190;22614;-78
2021/09/28 04:58:51;;;;;;;19.30;17.20;;;;;;;12.27;72.04;100946.89;116873;1190;22803;-78
2021/09/28 05:01:21;;;;;;;16.80;15.10;;;;;;;12.27;72.01;100947.33;116858;1190;23438;-79
2021/09/28 05:03:50;;;;;;;19.10;16.50;;;;;;;12.23;71.93;100949.95;116921;1190;21890;-79
2021/09/28 05:06:19;;;;;;;19.30;16.00;;;;;;;12.22;72.05;100950.27;116933;1190;23483;-79
2021/09/28 05:08:49;;;;;;;16.50;14.50;;;;;;;12.20;72.08;100951.19;116937;1190;21941;-79
2021/09/28 05:11:18;;;;;;;21.80;16.10;;;;;;;12.19;72.09;100954.34;116860;1187;21893;-78
2021/09/28 05:13:47;;;;;;;16.70;14.90;;;;;;;12.18;72.37;100953.91;116853;1188;22027;-78
2021/09/28 05:16:18;;;;;;;16.40;14.80;;;;;;;12.20;72.44;100955.92;117186;1184;21865;-77
2021/09/28 05:18:48;;;;;;;19.00;14.00;;;;;;;12.23;72.43;100960.80;117160;1188;21903;-76
2021/09/28 05:21:17;;;;;;;17.90;14.20;;;;;;;12.25;72.40;100957.39;117183;1187;22273;-78
2021/09/28 05:23:46;;;;;;;14.80;11.90;;;;;;;12.25;72.21;100956.14;117073;1188;21893;-78
2021/09/28 05:26:16;;;;;;;16.60;12.50;;;;;;;12.22;72.19;100950.89;116838;1189;22903;-78
2021/09/28 05:28:45;;;;;;;14.70;11.60;;;;;;;12.21;72.12;100950.39;117092;1188;21890;-78
2021/09/28 05:31:14;;;;;;;15.80;12.70;;;;;;;12.16;72.15;100953.20;117080;1184;21887;-78
2021/09/28 05:33:43;;;;;;;18.80;12.60;;;;;;;12.13;72.24;100954.19;117122;1188;23460;-78
2021/09/28 05:36:12;;;;;;;15.10;12.00;;;;;;;12.14;72.51;100963.29;117097;1184;22832;-78
2021/09/28 05:38:41;;;;;;;11.50;10.10;;;;;;;12.19;72.62;100973.19;116813;1191;22977;-78
2021/09/28 05:41:10;;;;;;;13.80;11.40;;;;;;;12.27;72.62;100975.17;116883;1191;21910;-78
2021/09/28 05:43:40;;;;;;;24.50;16.90;;;;;;;12.34;72.62;100978.65;116818;1191;21958;-78
2021/09/28 05:46:09;;;;;;;15.70;11.60;;;;;;;12.41;72.53;100985.35;116902;1186;22927;-85
2021/09/28 05:48:39;;;;;;;14.00;9.60;;;;;;;12.45;72.15;100989.69;116887;1191;21913;-83
2021/09/28 05:51:17;;;;;;;15.60;8.20;;;;;;;12.44;71.94;100986.28;117041;1191;21941;-83
2021/09/28 05:53:47;;;;;;;18.30;8.80;;;;;;;12.42;71.77;100984.86;116821;1193;21881;-79
2021/09/28 05:56:16;;;;;;;13.10;8.40;;;;;;;12.43;71.89;100987.26;116593;1191;22895;-77
2021/09/28 05:58:45;;;;;;;19.00;9.60;;;;;;;12.48;71.90;100987.41;116889;1191;21901;-79
2021/09/28 06:01:14;;;;;;;16.00;8.30;;;;;;;12.52;71.86;100988.23;116794;1191;23430;-77
2021/09/28 06:03:43;;;;;;;11.00;7.60;;;;;;;12.55;71.63;100988.13;116805;1191;23624;-77
2021/09/28 06:06:13;;;;;;;10.20;7.90;;;;;;;12.54;71.61;100991.58;116796;1187;21890;-78
2021/09/28 06:08:42;;;;;;;11.80;9.30;;;;;;;12.53;71.35;100992.91;116809;1191;21903;-78
2021/09/28 06:11:11;;;;;;;17.50;9.40;;;;;;;12.49;70.99;100998.78;116794;1188;21875;-78
2021/09/28 06:13:40;;;;;;;17.60;10.70;;;;;;;12.46;71.30;100998.95;117110;1175;23042;-78
2021/09/28 06:16:09;;;;;;;16.10;12.00;;;;;;;12.47;71.31;100997.09;117102;1188;21889;-78
2021/09/28 06:18:38;;;;;;;18.60;12.10;;;;;;;12.48;71.24;100997.65;117208;1183;21884;-78
2021/09/28 06:21:07;;;;;;;16.50;10.90;;;;;;;12.48;71.21;101001.70;117190;1187;22713;-78
2021/09/28 06:23:36;;;;;;;12.50;9.20;;;;;;;12.50;71.29;101006.46;117190;1184;23436;-79
2021/09/28 06:26:06;;;;;;;9.80;7.90;;;;;;;12.52;71.28;101006.97;117152;1185;21898;-77
2021/09/28 06:28:37;;;;;;;;;;;;;;;12.54;71.17;101007.57;117114;1189;22345;-78
2021/09/28 06:31:06;;;;;;;13.00;8.70;;;;;;;12.52;71.39;101003.58;117120;1188;21889;-78
2021/09/28 06:33:37;;;;;;;12.70;8.50;;;;;;;12.62;72.09;101000.88;117112;1188;21906;-78
2021/09/28 06:36:07;;;;;;;15.70;7.80;;;;;;;12.84;71.99;101003.45;117228;1188;22813;-78
2021/09/28 06:38:36;;;;;;;14.70;7.30;;;;;;;12.98;71.44;101005.83;117254;1188;21927;-78
2021/09/28 06:41:05;;;;;;;15.00;7.20;;;;;;;13.14;71.42;101007.27;117163;1188;21876;-78
2021/09/28 06:43:34;;;;;;;10.20;7.60;;;;;;;13.39;71.48;101011.82;117100;1188;24000;-79
2021/09/28 06:46:05;;;;;;;15.40;8.00;;;;;;;13.63;71.16;101010.72;117215;1188;23552;-78
2021/09/28 06:48:35;;;;;;;15.80;8.30;;;;;;;13.96;71.16;101009.15;117149;1188;22877;-80
2021/09/28 06:51:06;;;;;;;14.50;8.50;;;;;;;14.29;70.19;101007.17;116819;1191;21880;-82
2021/09/28 06:53:35;;;;;;;12.70;7.00;;;;;;;14.55;68.99;101007.56;116819;1192;21974;-82
2021/09/28 06:56:04;;;;;;;10.90;6.90;;;;;;;14.73;67.52;101008.27;116297;1195;22398;-81
2021/09/28 06:58:34;;;;;;;9.80;6.90;;;;;;;14.88;67.00;101009.05;116339;1193;22084;-81
2021/09/28 07:01:03;;;;;;;11.70;7.20;;;;;;;15.05;66.39;101013.62;116357;1195;21943;-82
2021/09/28 07:03:34;;;;;;;10.50;6.40;;;;;;;15.17;65.47;101017.58;116494;1195;23636;-82
2021/09/28 07:06:04;;;;;;;9.30;6.70;;;;;;;15.24;64.77;101021.55;116719;1195;22292;-82
2021/09/28 07:08:34;;;;;;;10.70;6.30;;;;;;;15.24;64.16;101027.64;116549;1193;22941;-83
2021/09/28 07:11:03;;;;;;;12.70;6.00;;;;;;;15.20;63.63;101034.37;116736;1187;21886;-80
2021/09/28 07:13:32;;;;;;;7.70;6.10;;;;;;;15.16;63.66;101036.20;116842;1188;23834;-77
2021/09/28 07:16:02;;;;;;;8.50;6.40;;;;;;;15.15;63.64;101042.36;117070;1188;22950;-78
2021/09/28 07:18:31;;;;;;;10.60;5.80;;;;;;;15.16;63.67;101043.65;117117;1188;21877;-78
2021/09/28 07:21:00;;;;;;;12.20;8.90;;;;;;;15.21;64.00;101044.14;117175;1188;23476;-79
2021/09/28 07:23:30;;;;;;;11.10;6.90;;;;;;;15.25;63.73;101043.14;116743;1192;23470;-79
2021/09/28 07:26:00;;;;;;;7.70;5.40;;;;;;;15.28;63.61;101042.27;116791;1191;22397;-79
2021/09/28 07:28:30;;;;;;;7.40;4.90;;;;;;;15.38;64.10;101045.20;116821;1191;22217;-79
2021/09/28 07:31:00;;;;;;;8.90;6.40;;;;;;;15.51;63.75;101050.69;116772;1191;24176;-78
2021/09/28 07:33:30;;;;;;;10.10;5.40;;;;;;;15.50;62.60;101056.31;116793;1191;21978;-79
2021/09/28 07:36:01;;;;;;;10.50;6.40;;;;;;;15.39;62.37;101056.98;116876;1191;21961;-78
2021/09/28 07:38:32;;;;;;;7.90;6.10;;;;;;;15.35;62.85;101057.25;116888;1191;23538;-78
2021/09/28 07:41:03;;;;;;;10.40;6.60;;;;;;;15.37;63.14;101055.27;116875;1188;22815;-79
2021/09/28 07:43:33;;;;;;;11.60;6.60;;;;;;;15.44;63.26;101055.09;116827;1190;24322;-79
2021/09/28 07:46:02;;;;;;;8.90;6.10;;;;;;;15.55;63.20;101051.81;116935;1189;23437;-79
2021/09/28 07:48:31;;;;;;;9.20;5.80;;;;;;;15.66;63.06;101051.81;116894;1190;23511;-77
2021/09/28 07:51:00;;;;;;;8.50;6.70;;;;;;;15.78;62.75;101051.59;116638;1192;21918;-77
2021/09/28 07:53:29;;;;;;;11.00;6.90;;;;;;;15.74;61.49;101052.71;116842;1192;24213;-77
2021/09/28 07:55:59;;;;;;;10.00;7.20;;;;;;;15.59;61.25;101056.00;116737;1192;23546;-78
2021/09/28 07:58:28;;;;;;;13.40;7.30;;;;;;;15.54;61.99;101056.41;116778;1192;22861;-78
2021/09/28 08:00:57;;;;;;;11.40;7.30;;;;;;;15.54;62.09;101059.21;116836;1189;21893;-78
2021/09/28 08:03:28;;;;;;;14.10;10.60;;;;;;;15.64;62.72;101059.84;116776;1191;22992;-77
2021/09/28 08:05:57;;;;;;;10.60;7.30;;;;;;;15.79;62.47;101056.50;116745;1192;21945;-78
2021/09/28 08:08:26;;;;;;;12.30;7.90;;;;;;;15.98;62.42;101059.10;116842;1188;22910;-77
2021/09/28 08:10:56;;;;;;;10.80;7.50;;;;;;;16.26;62.40;101060.89;117364;1187;21875;-77
2021/09/28 08:13:25;;;;;;;10.60;7.20;;;;;;;16.50;61.42;101059.39;117292;1188;21906;-78
2021/09/28 08:16:02;;;;;;;11.60;7.10;;;;;;;16.60;60.38;101055.42;117543;1187;21899;-77
2021/09/28 08:18:31;;;;;;;12.60;7.50;;;;;;;16.58;59.51;101056.23;117244;1187;21898;-77
2021/09/28 08:21:00;;;;;;;13.10;7.70;;;;;;;16.54;59.88;101058.86;117142;1185;22588;-78
2021/09/28 08:23:30;;;;;;;9.80;6.70;;;;;;;16.56;60.12;101062.34;117228;1187;21890;-77
2021/09/28 08:29:10;;;;;;;10.40;7.30;;;;;;;16.72;59.90;101060.89;117199;1187;21938;-78
2021/09/28 08:31:47;;;;;;;10.60;8.10;;;;;;;16.65;59.15;101068.33;117221;1187;22029;-77
2021/09/28 08:34:17;;;;;;;14.80;7.60;;;;;;;16.63;59.61;101068.20;117177;1187;21891;-77
2021/09/28 08:36:48;;;;;;;16.40;7.60;;;;;;;16.73;60.11;101068.75;117140;1188;21922;-79
2021/09/28 08:39:17;;;;;;;11.00;7.30;;;;;;;16.97;60.77;101071.08;117089;1188;21872;-81
2021/09/28 08:41:51;;;;;;;7.80;6.10;;;;;;;17.28;60.49;101068.77;117117;1187;21903;-78
2021/09/28 08:44:20;;;;;;;7.80;6.10;;;;;;;17.51;59.37;101067.38;117080;1187;22902;-80
2021/09/28 08:46:51;;;;;;;12.10;6.80;;;;;;;17.63;58.46;101064.34;117217;1188;23534;-79
2021/09/28 08:49:22;;;;;;;7.30;5.90;;;;;;;17.70;57.92;101066.17;117163;1185;21954;-78
2021/09/28 08:51:52;;;;;;;8.70;6.60;;;;;;;17.75;57.57;101067.98;117291;1187;21889;-78
2021/09/28 08:54:21;;;;;;;13.00;6.90;;;;;;;17.77;57.22;101061.55;117043;1188;22944;-77
2021/09/28 08:56:51;;;;;;;7.80;6.50;;;;;;;17.80;57.33;101065.06;117224;1187;21906;-76
2021/09/28 08:59:21;;;;;;;8.20;6.30;;;;;;;17.87;57.02;101065.35;117212;1187;22939;-76
2021/09/28 09:01:56;;;;;;;13.20;8.00;;;;;;;17.91;56.77;101067.27;117192;1186;22027;-76
2021/09/28 09:04:26;;;;;;;8.60;6.00;;;;;;;17.95;56.93;101064.08;117250;1187;22819;-76
2021/09/28 09:06:55;;;;;;;15.80;6.90;;;;;;;18.07;57.24;101062.08;117230;1187;23533;-75
2021/09/28 09:09:49;;;;;;;10.20;6.50;;;;;;;18.22;56.74;101056.77;117202;1188;23555;-75
2021/09/28 09:12:40;;;;;;;9.60;5.70;;;;;;;18.24;55.69;101055.39;117114;1187;21991;-76
2021/09/28 09:15:28;;;;;;;9.70;6.30;;;;;;;18.15;55.52;101059.84;117091;1188;24830;-76
2021/09/28 09:18:05;;;;;;;12.20;6.10;;;;;;;18.08;55.85;101062.81;117155;1187;21909;-75
2021/09/28 09:20:43;;;;;;;9.70;6.00;;;;;;;18.15;56.21;101064.95;117217;1188;23383;-75
2021/09/28 09:23:32;;;;;;;10.90;6.40;;;;;;;18.26;56.13;101066.87;117213;1187;21878;-75
2021/09/28 09:26:05;;;;;;;10.70;5.90;;;;;;;18.48;56.18;101066.27;117227;1187;21885;-75
2021/09/28 09:28:54;;;;;;;8.50;5.40;;;;;;;18.63;55.35;101071.13;117185;1184;21871;-75
2021/09/28 09:31:35;;;;;;;10.90;5.60;;;;;;;18.84;55.49;101076.06;117127;1188;21882;-75
2021/09/28 09:34:14;;;;;;;9.60;6.60;;;;;;;18.94;54.56;101077.20;117041;1188;23738;-75
2021/09/28 09:37:13;;;;;;;10.80;6.00;;;;;;;19.01;54.40;101075.27;117268;1184;23666;-76
2021/09/28 09:39:55;;;;;;;14.50;6.30;;;;;;;19.07;53.95;101079.75;116946;1189;21881;-76
2021/09/28 09:42:27;;;;;;;9.00;6.20;;;;;;;19.03;53.45;101084.16;116949;1190;22177;-75
2021/09/28 09:45:23;;;;;;;12.10;5.90;;;;;;;19.08;54.17;101087.83;116951;1190;21926;-75
2021/09/28 09:47:52;;;;;;;7.90;5.60;;;;;;;19.21;54.16;101084.70;116973;1189;23463;-76
2021/09/28 09:50:23;;;;;;;9.40;6.80;;;;;;;19.32;53.83;101084.11;116956;1189;22411;-77
2021/09/28 09:52:59;;;;;;;8.30;5.70;;;;;;;19.44;53.83;101087.73;116985;1181;21882;-77
2021/09/28 09:55:35;;;;;;;11.70;6.40;;;;;;;19.54;52.99;101087.67;117079;1189;21967;-78
2021/09/28 09:58:05;;;;;;;6.90;5.30;;;;;;;19.55;52.41;101089.65;116982;1188;21896;-77
2021/09/28 10:00:34;;;;;;;9.20;5.90;;;;;;;19.48;51.86;101086.86;117252;1188;23486;-77
2021/09/28 10:03:04;;;;;;;13.90;5.50;;;;;;;19.44;52.18;101085.95;117193;1188;22750;-78
2021/09/28 10:05:35;;;;;;;9.10;5.30;;;;;;;19.48;52.25;101085.79;117201;1183;21892;-78
2021/09/28 10:08:09;;;;;;;8.30;5.10;;;;;;;19.46;51.84;101090.16;117205;1188;21904;-77
2021/09/28 10:10:40;;;;;;;9.60;5.20;;;;;;;19.40;51.72;101091.15;117308;1184;21959;-78
2021/09/28 10:13:49;;;;;;;7.60;5.00;;;;;;;19.40;51.86;101088.64;117165;1188;21902;-77
2021/09/28 10:16:32;;;;;;;10.60;5.60;;;;;;;19.42;51.61;101084.81;117256;1188;21866;-78
2021/09/28 10:19:24;;;;;;;7.10;4.70;;;;;;;19.54;51.78;101083.10;117316;1188;21896;-77
2021/09/28 10:21:57;;;;;;;8.10;4.70;;;;;;;19.77;51.64;101084.27;117253;1184;21993;-79
2021/09/28 10:24:36;;;;;;;5.30;3.90;;;;;;;19.98;51.35;101084.20;117214;1187;21865;-78
2021/09/28 10:27:08;;;;;;;7.80;5.40;;;;;;;20.12;50.51;101082.66;117274;1177;21882;-77
2021/09/28 10:29:50;;;;;;;7.00;4.50;;;;;;;20.26;49.74;101088.34;117340;1180;21878;-77
2021/09/28 10:32:23;;;;;;;7.40;4.10;;;;;;;20.31;49.10;101089.46;117245;1184;22036;-78
2021/09/28 10:35:08;;;;;;;10.20;4.30;;;;;;;20.34;48.71;101086.33;117207;1188;21908;-77
2021/09/28 10:37:55;;;;;;;9.50;4.70;;;;;;;20.43;48.81;101084.17;117287;1188;22633;-77
2021/09/28 10:40:30;;;;;;;7.50;4.20;;;;;;;20.51;48.36;101081.34;117225;1187;22285;-76
2021/09/28 10:43:05;;;;;;;9.00;4.00;;;;;;;20.49;47.61;101083.69;117265;1188;23593;-78
2021/09/28 10:45:36;;;;;;;16.30;5.20;;;;;;;20.46;47.70;101082.21;117116;1188;22651;-76
2021/09/28 10:48:29;;;;;;;12.00;4.50;;;;;;;20.42;47.79;101080.40;117235;1188;23534;-76
2021/09/28 10:51:21;;;;;;;9.50;4.80;;;;;;;20.46;47.74;101083.93;117137;1176;21881;-77
2021/09/28 10:53:54;;;;;;;9.10;5.20;;;;;;;20.43;47.49;101083.04;117130;1188;23463;-78
2021/09/28 10:56:23;;;;;;;8.30;4.90;;;;;;;20.45;47.45;101087.28;117065;1188;22841;-76
2021/09/28 10:59:00;;;;;;;7.70;4.10;;;;;;;20.36;47.32;101086.05;117125;1188;21912;-76
2021/09/28 11:01:33;;;;;;;10.30;4.90;;;;;;;20.36;47.99;101086.06;117125;1188;21889;-76
2021/09/28 11:04:15;;;;;;;9.20;5.20;;;;;;;20.40;47.90;101083.67;117433;1188;23358;-75
2021/09/28 11:06:51;;;;;;;10.40;5.30;;;;;;;20.39;47.55;101087.20;117268;1188;23423;-77
2021/09/28 11:09:26;;;;;;;8.40;5.20;;;;;;;20.35;47.76;101095.14;117127;1185;21885;-78
2021/09/28 11:11:58;;;;;;;13.70;5.20;;;;;;;20.13;47.10;101089.38;117442;1188;21912;-77
2021/09/28 11:14:27;;;;;;;8.90;5.00;;;;;;;19.82;47.60;101083.67;117222;1188;22382;-76
2021/09/28 11:16:57;;;;;;;13.60;4.70;;;;;;;19.65;48.18;101081.85;117195;1188;22128;-77
2021/09/28 11:19:40;;;;;;;8.00;4.50;;;;;;;19.61;48.61;101084.54;117144;1189;21897;-76
2021/09/28 11:22:16;;;;;;;8.80;4.40;;;;;;;19.60;48.47;101085.11;116991;1189;21973;-77
2021/09/28 11:24:46;;;;;;;7.80;4.70;;;;;;;19.56;48.62;101084.21;116953;1185;24149;-76
2021/09/28 11:27:15;;;;;;;9.00;4.90;;;;;;;19.59;48.79;101083.42;117124;1189;22888;-78
2021/09/28 11:29:45;;;;;;;11.20;5.80;;;;;;;19.58;48.28;101082.89;116681;1191;22183;-77
2021/09/28 11:32:15;;;;;;;8.40;4.50;;;;;;;19.57;48.65;101084.28;116843;1190;23543;-77